Time;durP1;ratioP1;P1;durP2;ratioP2;P2;SDS_P1;SDS_P2;PMS_P1;PMS_P2;Temp;Humidity;BMP_temperature;BMP_pressure;BME280_temperature;BME280_humidity;BME280_pressure;Samples;Min_cycle;Max_cycle;Signal;HPM_P1;HPM_P2
2022/12/10 00:01:31;;;;;;;11.70;9.40;;;6.40;81.70;;;;;;5066134;28;20052;-55
2022/12/10 00:03:57;;;;;;;12.88;9.95;;;6.40;81.90;;;;;;5071438;28;20028;-64
2022/12/10 00:06:27;;;;;;;11.77;9.82;;;6.40;81.60;;;;;;5071739;28;20059;-66
2022/12/10 00:08:56;;;;;;;15.43;10.13;;;6.40;81.40;;;;;;5072189;28;20028;-56
2022/12/10 00:11:23;;;;;;;13.23;9.43;;;6.40;81.30;;;;;;5071821;28;20036;-55
2022/12/10 00:13:50;;;;;;;14.48;10.25;;;6.30;81.10;;;;;;5064602;28;20028;-56
2022/12/10 00:16:18;;;;;;;13.10;10.05;;;6.30;81.10;;;;;;5062223;28;20040;-55
2022/12/10 00:18:45;;;;;;;16.67;10.80;;;6.30;81.10;;;;;;5058474;28;20032;-58
2022/12/10 00:21:17;;;;;;;14.30;9.93;;;6.20;81.10;;;;;;5070787;28;20029;-57
2022/12/10 00:23:44;;;;;;;16.08;10.48;;;6.10;81.10;;;;;;5068410;28;20257;-56
2022/12/10 00:26:31;;;;;;;16.02;10.02;;;6.10;81.20;;;;;;5064281;28;20035;-56
2022/12/10 00:28:59;;;;;;;12.05;7.82;;;6.00;81.30;;;;;;5061693;28;20051;-57
2022/12/10 00:31:29;;;;;;;13.25;8.20;;;5.90;81.60;;;;;;5070446;28;20051;-57
2022/12/10 00:34:00;;;;;;;12.82;8.35;;;5.90;82.10;;;;;;5068926;28;20032;-49
2022/12/10 00:36:32;;;;;;;11.18;7.70;;;5.90;82.40;;;;;;5065945;28;20017;-51
2022/12/10 00:38:59;;;;;;;12.80;8.13;;;5.90;82.50;;;;;;5065937;28;20033;-51
2022/12/10 00:41:25;;;;;;;13.13;8.45;;;5.90;82.50;;;;;;5066116;28;20162;-53
2022/12/10 00:43:51;;;;;;;13.38;8.50;;;5.90;82.60;;;;;;5069675;28;20119;-50
2022/12/10 00:46:18;;;;;;;12.95;8.02;;;5.90;82.50;;;;;;5070970;28;20050;-49
2022/12/10 00:48:44;;;;;;;16.10;9.50;;;5.90;82.60;;;;;;5060887;28;20029;-63
2022/12/10 00:51:23;;;;;;;14.68;10.00;;;5.90;82.60;;;;;;5061871;28;20028;-64
2022/12/10 00:53:50;;;;;;;17.83;10.88;;;5.90;82.60;;;;;;5071847;28;20045;-60
2022/12/10 00:56:19;;;;;;;18.75;11.02;;;5.90;82.70;;;;;;5070719;28;20024;-58
2022/12/10 00:58:46;;;;;;;19.23;11.75;;;5.80;82.90;;;;;;5067441;28;20029;-51
2022/12/10 01:01:36;;;;;;;15.88;11.02;;;5.80;83.10;;;;;;5061042;28;20025;-64
2022/12/10 01:04:07;;;;;;;22.25;10.88;;;5.80;83.10;;;;;;5059501;28;20103;-64
2022/12/10 01:06:42;;;;;;;16.73;9.90;;;5.80;83.40;;;;;;5064824;28;20032;-54
2022/12/10 01:09:11;;;;;;;13.88;8.52;;;5.80;83.50;;;;;;5070449;28;20478;-56
2022/12/10 01:11:39;;;;;;;16.98;9.05;;;5.90;83.60;;;;;;5065155;28;20044;-56
2022/12/10 01:14:07;;;;;;;11.35;7.00;;;5.90;83.60;;;;;;5063569;28;20025;-55
2022/12/10 01:16:33;;;;;;;13.95;8.20;;;5.80;83.60;;;;;;5069696;28;20040;-62
2022/12/10 01:19:00;;;;;;;11.45;7.43;;;5.90;84.00;;;;;;5064688;28;20047;-64
2022/12/10 01:21:27;;;;;;;10.32;7.15;;;5.90;84.00;;;;;;5061057;28;20037;-47
2022/12/10 01:23:53;;;;;;;10.40;6.95;;;5.90;84.10;;;;;;5061610;28;20149;-50
2022/12/10 01:26:22;;;;;;;9.88;6.53;;;5.90;83.80;;;;;;5061252;28;20062;-57
2022/12/10 01:28:49;;;;;;;9.77;6.25;;;6.00;84.10;;;;;;5069301;28;20033;-57
2022/12/10 01:31:20;;;;;;;7.95;5.75;;;6.00;84.10;;;;;;5060462;28;20029;-57
2022/12/10 01:33:46;;;;;;;9.75;6.50;;;6.00;84.00;;;;;;5059724;28;20025;-57
2022/12/10 01:36:21;;;;;;;9.32;6.47;;;6.00;84.10;;;;;;5066568;28;20036;-63
2022/12/10 01:38:47;;;;;;;9.27;6.45;;;6.00;83.80;;;;;;5055719;28;20033;-65
2022/12/10 01:41:34;;;;;;;8.85;5.93;;;6.00;83.90;;;;;;5068462;28;20596;-55
2022/12/10 01:44:01;;;;;;;8.82;5.80;;;5.90;83.70;;;;;;5062676;28;20075;-56
2022/12/10 01:46:30;;;;;;;8.90;6.32;;;5.90;83.80;;;;;;5064070;28;20033;-57
2022/12/10 01:48:57;;;;;;;12.00;6.78;;;5.90;83.90;;;;;;5061350;28;20035;-57
2022/12/10 01:51:25;;;;;;;9.57;5.80;;;5.90;83.70;;;;;;5065041;28;20055;-56
2022/12/10 01:53:51;;;;;;;9.63;6.80;;;5.80;83.90;;;;;;5060710;28;20033;-55
2022/12/10 01:56:19;;;;;;;9.15;5.82;;;5.80;84.00;;;;;;5056242;28;20434;-65
2022/12/10 01:58:46;;;;;;;10.10;6.03;;;5.90;84.10;;;;;;5068043;28;20025;-66
2022/12/10 02:01:36;;;;;;;7.72;5.78;;;5.80;84.10;;;;;;5059459;28;20033;-57
2022/12/10 02:04:39;;;;;;;7.85;5.32;;;5.90;84.20;;;;;;5055424;28;20064;-57
2022/12/10 02:07:14;;;;;;;6.78;4.60;;;5.80;84.00;;;;;;5068696;28;20028;-56
2022/12/10 02:10:05;;;;;;;7.68;5.40;;;5.80;84.20;;;;;;5070764;28;20060;-57
2022/12/10 02:12:34;;;;;;;;;;;5.80;84.20;;;;;;5052662;28;20387;-57
2022/12/10 02:15:24;;;;;;;7.38;4.80;;;5.80;84.20;;;;;;5064023;28;19920;-58
2022/12/10 02:18:03;;;;;;;7.57;5.03;;;5.80;84.30;;;;;;5050820;28;20029;-56
2022/12/10 02:20:31;;;;;;;8.68;5.93;;;5.80;84.50;;;;;;5070079;28;20108;-53
2022/12/10 02:23:05;;;;;;;6.82;4.75;;;5.80;84.40;;;;;;5056644;28;20028;-51
2022/12/10 02:25:49;;;;;;;7.15;5.43;;;5.80;84.10;;;;;;5068488;28;20033;-52
2022/12/10 02:28:36;;;;;;;8.88;5.95;;;5.80;84.10;;;;;;5070339;28;20390;-56
2022/12/10 02:31:03;;;;;;;6.78;5.80;;;5.80;84.40;;;;;;5070189;28;20024;-53
2022/12/10 02:33:30;;;;;;;6.57;5.05;;;5.70;84.30;;;;;;5070790;28;20105;-52
2022/12/10 02:35:59;;;;;;;6.80;4.80;;;5.70;84.50;;;;;;5069977;28;20037;-53
2022/12/10 02:38:29;;;;;;;6.32;4.72;;;5.70;84.40;;;;;;5070299;28;20024;-52
2022/12/10 02:40:59;;;;;;;6.22;4.70;;;5.70;84.70;;;;;;5067921;28;20051;-54
2022/12/10 02:43:27;;;;;;;5.70;4.25;;;5.70;84.80;;;;;;5061619;28;20032;-54
2022/12/10 02:45:55;;;;;;;4.20;3.60;;;5.70;84.90;;;;;;5069878;28;20031;-54
2022/12/10 02:48:20;;;;;;;7.78;4.60;;;5.70;85.30;;;;;;5071200;28;20056;-54
2022/12/10 02:50:46;;;;;;;6.72;4.70;;;5.70;85.30;;;;;;5066503;28;20501;-54
2022/12/10 02:53:12;;;;;;;7.80;4.75;;;5.80;85.10;;;;;;5073963;28;20033;-53
2022/12/10 02:55:54;;;;;;;6.32;4.38;;;5.80;85.10;;;;;;5073414;28;20527;-53
2022/12/10 02:58:43;;;;;;;6.40;4.05;;;5.80;85.20;;;;;;5062914;28;20036;-54
2022/12/10 03:01:16;;;;;;;5.60;4.35;;;5.80;85.00;;;;;;5067582;28;20094;-52
2022/12/10 03:03:49;;;;;;;5.35;4.40;;;5.80;85.10;;;;;;5073561;28;20065;-49
2022/12/10 03:06:24;;;;;;;4.63;3.83;;;5.80;85.00;;;;;;5072852;28;20070;-53
2022/12/10 03:08:59;;;;;;;5.03;3.78;;;5.80;85.20;;;;;;5074222;28;20115;-54
2022/12/10 03:11:25;;;;;;;5.43;3.75;;;5.80;85.10;;;;;;5070661;28;20029;-52
2022/12/10 03:14:02;;;;;;;6.30;4.18;;;5.80;85.00;;;;;;5073004;28;20085;-52
2022/12/10 03:16:44;;;;;;;5.55;3.75;;;5.80;84.80;;;;;;5071563;28;20032;-51
2022/12/10 03:19:18;;;;;;;4.57;3.72;;;5.80;84.50;;;;;;5074024;28;20036;-52
2022/12/10 03:21:46;;;;;;;5.05;3.97;;;5.80;84.30;;;;;;5072570;28;20043;-52
2022/12/10 03:24:13;;;;;;;5.55;4.05;;;5.70;84.20;;;;;;5069349;28;20032;-53
2022/12/10 03:26:41;;;;;;;4.53;3.60;;;5.60;84.30;;;;;;5073314;28;20029;-57
2022/12/10 03:29:10;;;;;;;5.35;3.92;;;5.60;84.60;;;;;;5073178;28;20035;-55
2022/12/10 03:31:39;;;;;;;4.50;3.58;;;5.60;84.80;;;;;;5072908;28;20045;-55
2022/12/10 03:34:05;;;;;;;4.97;3.78;;;5.60;85.00;;;;;;5072002;28;20052;-56
2022/12/10 03:36:32;;;;;;;4.35;3.80;;;5.60;85.10;;;;;;5073305;28;20035;-64
2022/12/10 03:38:59;;;;;;;4.20;3.28;;;5.60;85.00;;;;;;5062684;28;20029;-65
2022/12/10 03:41:24;;;;;;;4.47;3.35;;;5.60;85.00;;;;;;5073502;28;20382;-57
2022/12/10 03:43:58;;;;;;;4.68;3.65;;;5.60;85.20;;;;;;5072838;28;20043;-57
2022/12/10 03:46:26;;;;;;;4.95;3.85;;;5.60;85.30;;;;;;5059540;28;20037;-56
2022/12/10 03:48:53;;;;;;;4.60;3.60;;;5.60;85.40;;;;;;5068197;28;20386;-56
2022/12/10 03:51:20;;;;;;;5.47;3.95;;;5.60;85.20;;;;;;5070147;28;20115;-57
2022/12/10 03:53:45;;;;;;;5.05;3.85;;;5.60;85.10;;;;;;5066971;28;20056;-57
2022/12/10 03:56:11;;;;;;;5.22;3.88;;;5.60;85.10;;;;;;5063755;28;20067;-55
2022/12/10 03:58:37;;;;;;;5.70;4.20;;;5.60;85.00;;;;;;5062643;28;20025;-57
2022/12/10 04:01:03;;;;;;;4.88;3.80;;;5.60;84.90;;;;;;5069302;28;20086;-56
2022/12/10 04:04:52;;;;;;;5.03;3.80;;;5.50;84.30;;;;;;5102680;27;20470;-56
2022/12/10 04:07:18;;;;;;;5.60;4.20;;;5.50;84.90;;;;;;5107642;28;20039;-56
2022/12/10 04:09:44;;;;;;;4.80;3.72;;;5.50;85.10;;;;;;5108491;28;20482;-57
2022/12/10 04:12:10;;;;;;;5.68;4.55;;;5.50;85.20;;;;;;5100862;28;20554;-56
2022/12/10 04:17:22;;;;;;;6.10;4.15;;;5.50;85.20;;;;;;5097088;28;20042;-65
2022/12/10 04:19:48;;;;;;;5.53;4.22;;;5.50;85.30;;;;;;5090024;28;20406;-61
2022/12/10 04:27:43;;;;;;;5.55;4.18;;;5.40;85.10;;;;;;5102829;28;20047;-64
2022/12/10 04:30:12;;;;;;;4.70;3.53;;;5.40;85.20;;;;;;5096576;28;20028;-60
2022/12/10 04:32:38;;;;;;;5.97;4.15;;;5.40;85.50;;;;;;5108334;28;20370;-58
2022/12/10 04:35:04;;;;;;;5.88;4.05;;;5.40;85.60;;;;;;5104488;28;20035;-58
2022/12/10 04:37:30;;;;;;;5.28;4.00;;;5.40;85.80;;;;;;5094164;28;20421;-57
2022/12/10 04:40:01;;;;;;;6.53;4.20;;;5.40;85.90;;;;;;5095576;28;20029;-58
2022/12/10 04:42:27;;;;;;;6.07;4.38;;;5.40;86.00;;;;;;5106542;28;20024;-58
2022/12/10 04:44:53;;;;;;;7.78;5.25;;;5.40;86.00;;;;;;5107796;28;20036;-58
2022/12/10 04:47:29;;;;;;;9.85;5.35;;;5.40;86.00;;;;;;5108464;28;20073;-58
2022/12/10 04:49:55;;;;;;;5.75;4.22;;;5.50;85.80;;;;;;5107564;28;20038;-57
2022/12/10 04:52:21;;;;;;;7.43;4.82;;;5.40;85.70;;;;;;5104570;28;20497;-57
2022/12/10 04:54:46;;;;;;;6.25;4.68;;;5.40;85.50;;;;;;5106618;28;20036;-57
2022/12/10 04:57:13;;;;;;;10.02;6.45;;;5.30;85.40;;;;;;5101820;28;20081;-59
2022/12/10 04:59:39;;;;;;;11.75;6.88;;;5.30;85.40;;;;;;5094377;28;20425;-59
2022/12/10 05:02:06;;;;;;;10.40;7.55;;;5.20;85.60;;;;;;5115299;28;20419;-59
2022/12/10 05:04:32;;;;;;;10.23;6.38;;;5.20;86.00;;;;;;5107102;28;20059;-59
2022/12/10 05:07:01;;;;;;;10.88;6.78;;;5.20;86.60;;;;;;5107928;28;20020;-59
2022/12/10 05:09:27;;;;;;;7.75;5.47;;;5.10;86.20;;;;;;5107052;28;20047;-59
2022/12/10 05:11:53;;;;;;;9.13;6.25;;;5.10;86.10;;;;;;5103569;28;20462;-58
2022/12/10 05:14:18;;;;;;;7.78;5.88;;;5.10;86.20;;;;;;5104848;28;20028;-59
2022/12/10 05:16:44;;;;;;;7.90;5.90;;;5.00;86.30;;;;;;5093149;28;20039;-59
2022/12/10 05:19:11;;;;;;;7.05;5.18;;;5.00;86.50;;;;;;5080400;28;20033;-59
2022/12/10 05:24:29;;;;;;;7.55;5.28;;;4.90;86.90;;;;;;5092785;28;20034;-59
2022/12/10 05:26:56;;;;;;;7.63;5.55;;;4.90;87.10;;;;;;5092663;28;20031;-59
2022/12/10 05:29:22;;;;;;;8.30;5.97;;;4.90;87.10;;;;;;5080101;28;20028;-56
2022/12/10 05:31:48;;;;;;;9.32;6.20;;;4.90;87.10;;;;;;5092962;28;20039;-66
2022/12/10 05:34:14;;;;;;;7.72;5.80;;;4.90;87.20;;;;;;5093095;28;20056;-66
2022/12/10 05:36:40;;;;;;;8.10;6.18;;;5.00;87.40;;;;;;5093931;28;20119;-66
2022/12/10 05:39:06;;;;;;;8.10;5.68;;;4.90;87.50;;;;;;5085075;28;20120;-65
2022/12/10 05:41:36;;;;;;;6.55;5.28;;;5.00;87.60;;;;;;5092930;28;20035;-52
2022/12/10 05:44:02;;;;;;;6.80;5.45;;;5.00;87.60;;;;;;5091879;28;20040;-54
2022/12/10 05:46:31;;;;;;;8.05;6.07;;;5.10;87.50;;;;;;5093158;28;20042;-54
2022/12/10 05:48:57;;;;;;;8.07;5.63;;;5.10;87.20;;;;;;5093012;28;20111;-52
2022/12/10 05:51:26;;;;;;;8.80;6.40;;;5.10;87.20;;;;;;5091153;28;20059;-51
2022/12/10 05:53:53;;;;;;;8.75;6.43;;;5.10;87.20;;;;;;5093004;28;20035;-52
2022/12/10 05:56:21;;;;;;;9.88;6.80;;;5.10;87.10;;;;;;5087252;28;20065;-51
2022/12/10 05:58:50;;;;;;;9.35;6.38;;;5.00;86.80;;;;;;5092692;28;20047;-49
2022/12/10 06:01:19;;;;;;;7.82;5.78;;;5.00;86.90;;;;;;5084995;28;20335;-51
2022/12/10 06:03:45;;;;;;;8.57;6.07;;;5.00;87.10;;;;;;5077408;28;20118;-51
2022/12/10 06:06:11;;;;;;;7.82;5.80;;;5.00;87.00;;;;;;5091121;28;20043;-55
2022/12/10 06:08:38;;;;;;;7.28;5.88;;;4.90;87.00;;;;;;5092098;28;20040;-55
2022/12/10 06:11:06;;;;;;;6.85;5.20;;;4.90;87.10;;;;;;5079090;28;20035;-57
2022/12/10 06:13:35;;;;;;;7.63;4.90;;;4.90;87.40;;;;;;5085200;28;20068;-57
2022/12/10 06:16:05;;;;;;;10.25;6.32;;;4.90;87.60;;;;;;5079496;28;20031;-50
2022/12/10 06:18:31;;;;;;;6.43;5.00;;;4.90;87.60;;;;;;5091866;28;20028;-48
2022/12/10 06:20:57;;;;;;;6.78;4.80;;;4.90;87.80;;;;;;5091312;28;20039;-49
2022/12/10 06:23:23;;;;;;;7.85;5.63;;;4.90;88.00;;;;;;5085044;28;20064;-48
2022/12/10 06:25:49;;;;;;;6.38;5.13;;;4.90;88.10;;;;;;5092204;28;20394;-49
2022/12/10 06:28:14;;;;;;;6.43;4.80;;;5.00;88.00;;;;;;5084038;28;20035;-51
2022/12/10 06:30:40;;;;;;;5.40;4.63;;;5.00;88.10;;;;;;5091954;28;20039;-52
2022/12/10 06:33:06;;;;;;;7.85;5.10;;;5.00;88.30;;;;;;5088657;28;20474;-49
2022/12/10 06:35:32;;;;;;;7.40;5.35;;;5.10;88.20;;;;;;5083583;28;20541;-49
2022/12/10 06:37:58;;;;;;;5.90;4.65;;;5.10;88.30;;;;;;5079926;28;20063;-51
2022/12/10 06:40:24;;;;;;;6.90;4.95;;;5.20;88.10;;;;;;5089731;28;20085;-49
2022/12/10 06:42:52;;;;;;;6.43;5.28;;;5.20;88.10;;;;;;5079125;28;20032;-49
2022/12/10 06:45:18;;;;;;;6.60;4.70;;;5.30;88.20;;;;;;5080790;28;20036;-49
2022/12/10 06:47:44;;;;;;;6.45;5.20;;;5.30;88.00;;;;;;5086986;28;20027;-50
2022/12/10 06:50:10;;;;;;;7.65;6.13;;;5.30;88.10;;;;;;5083960;28;20028;-51
2022/12/10 06:52:36;;;;;;;7.43;5.70;;;5.30;87.90;;;;;;5083995;28;20023;-52
2022/12/10 06:55:02;;;;;;;7.32;5.55;;;5.30;87.90;;;;;;5085038;28;20113;-49
2022/12/10 06:57:28;;;;;;;6.85;5.25;;;5.30;88.00;;;;;;5076229;28;20036;-53
2022/12/10 06:59:54;;;;;;;7.18;5.63;;;5.40;88.20;;;;;;5074511;28;20036;-55
2022/12/10 07:02:19;;;;;;;9.27;6.22;;;5.40;88.10;;;;;;5068380;28;20035;-55
2022/12/10 07:04:45;;;;;;;8.65;5.97;;;5.40;87.80;;;;;;5080262;28;20170;-53
2022/12/10 07:07:11;;;;;;;7.43;5.57;;;5.40;87.60;;;;;;5071027;28;20699;-51
2022/12/10 07:09:37;;;;;;;6.85;5.53;;;5.50;87.90;;;;;;5071609;28;20028;-50
2022/12/10 07:12:03;;;;;;;6.18;5.00;;;5.50;87.80;;;;;;5077775;28;20024;-55
2022/12/10 07:14:29;;;;;;;6.10;4.88;;;5.50;87.70;;;;;;5085656;28;20050;-51
2022/12/10 07:16:55;;;;;;;6.30;4.78;;;5.40;87.70;;;;;;5079129;28;20077;-52
2022/12/10 07:19:20;;;;;;;4.90;4.40;;;5.50;87.90;;;;;;5069401;28;20036;-59
2022/12/10 07:21:46;;;;;;;5.38;4.50;;;5.50;88.30;;;;;;5073214;28;20428;-54
2022/12/10 07:24:16;;;;;;;7.65;5.05;;;5.50;88.20;;;;;;5079546;28;20067;-53
2022/12/10 07:26:44;;;;;;;6.68;5.15;;;5.60;88.20;;;;;;5076788;28;20618;-57
2022/12/10 07:29:14;;;;;;;7.10;4.75;;;5.60;88.00;;;;;;5078846;28;20046;-53
2022/12/10 07:31:40;;;;;;;6.03;5.05;;;5.60;87.60;;;;;;5079284;28;20032;-63
2022/12/10 07:34:06;;;;;;;5.07;4.03;;;5.60;87.50;;;;;;5080561;28;20447;-63
2022/12/10 07:36:32;;;;;;;5.40;4.30;;;5.60;87.70;;;;;;5083872;28;20039;-64
2022/12/10 07:38:57;;;;;;;5.55;4.45;;;5.60;88.30;;;;;;5079879;28;20109;-63
2022/12/10 07:41:24;;;;;;;6.07;4.72;;;5.60;88.70;;;;;;5078982;28;20093;-65
2022/12/10 07:43:50;;;;;;;6.53;5.45;;;5.70;88.80;;;;;;5075957;28;20044;-63
2022/12/10 07:46:35;;;;;;;8.85;6.13;;;5.80;88.60;;;;;;5076827;28;20826;-65
2022/12/10 07:49:02;;;;;;;9.20;6.45;;;5.80;88.10;;;;;;5080541;28;20039;-62
2022/12/10 07:51:29;;;;;;;7.47;5.63;;;5.80;87.90;;;;;;5078344;28;20384;-66
2022/12/10 07:53:55;;;;;;;7.50;5.50;;;5.90;87.70;;;;;;5077906;28;20037;-63
2022/12/10 07:56:22;;;;;;;8.43;5.35;;;5.90;87.40;;;;;;5078041;28;20025;-66
2022/12/10 07:58:48;;;;;;;6.68;4.78;;;5.80;87.60;;;;;;5073946;28;20499;-62
2022/12/10 08:01:18;;;;;;;5.65;4.50;;;5.90;87.50;;;;;;5075043;28;20031;-67
2022/12/10 08:03:43;;;;;;;4.53;4.00;;;5.90;87.20;;;;;;5082702;28;20071;-64
2022/12/10 08:06:13;;;;;;;4.40;3.90;;;5.90;86.70;;;;;;5075319;28;20036;-63
2022/12/10 08:08:39;;;;;;;4.45;3.90;;;5.80;86.50;;;;;;5078822;28;20449;-65
2022/12/10 08:11:06;;;;;;;6.65;4.07;;;5.80;86.40;;;;;;5085433;28;20759;-65
2022/12/10 08:13:33;;;;;;;6.43;4.82;;;5.70;86.30;;;;;;5074231;28;20144;-64
2022/12/10 08:16:08;;;;;;;6.88;5.10;;;5.70;86.60;;;;;;5084494;28;20028;-59
2022/12/10 08:18:34;;;;;;;6.43;4.90;;;5.70;86.50;;;;;;5074930;28;20034;-59
2022/12/10 08:21:07;;;;;;;6.72;5.32;;;5.60;86.80;;;;;;5083084;28;20032;-64
2022/12/10 08:23:33;;;;;;;7.30;5.47;;;5.50;87.10;;;;;;5084004;28;20047;-65
2022/12/10 08:26:05;;;;;;;6.90;5.55;;;5.60;87.50;;;;;;5078924;28;20036;-63
2022/12/10 08:28:32;;;;;;;8.23;6.28;;;5.50;87.60;;;;;;5072716;28;20033;-61
2022/12/10 08:30:57;;;;;;;9.25;5.88;;;5.50;87.80;;;;;;5073202;28;20039;-64
2022/12/10 08:33:23;;;;;;;7.03;5.13;;;5.50;87.90;;;;;;5083405;28;20028;-65
2022/12/10 08:35:49;;;;;;;7.53;5.25;;;5.40;87.80;;;;;;5075847;28;20061;-64
2022/12/10 08:38:14;;;;;;;6.90;5.68;;;5.40;87.90;;;;;;5074917;28;20052;-63
2022/12/10 08:40:41;;;;;;;8.77;6.55;;;5.30;88.00;;;;;;5074313;28;20044;-64
2022/12/10 08:43:07;;;;;;;7.93;6.70;;;5.30;88.30;;;;;;5075724;28;20044;-63
2022/12/10 08:45:33;;;;;;;8.77;6.60;;;5.30;88.80;;;;;;5072452;28;20041;-61
2022/12/10 08:47:58;;;;;;;8.00;6.47;;;5.20;88.90;;;;;;5068107;28;20043;-62
2022/12/10 08:50:24;;;;;;;8.00;5.60;;;5.20;88.60;;;;;;5066914;28;20038;-65
2022/12/10 08:52:49;;;;;;;7.10;5.50;;;5.20;88.80;;;;;;5074914;28;20035;-64
2022/12/10 08:55:15;;;;;;;8.32;6.18;;;5.20;89.20;;;;;;5074120;28;20052;-62
2022/12/10 08:57:41;;;;;;;8.30;5.95;;;5.20;89.50;;;;;;5077700;28;20730;-65
2022/12/10 09:00:07;;;;;;;10.63;7.38;;;5.20;89.60;;;;;;5077510;28;20096;-61
2022/12/10 09:02:33;;;;;;;10.48;6.85;;;5.10;89.50;;;;;;5075010;28;20040;-63
2022/12/10 09:04:58;;;;;;;11.15;7.70;;;5.10;89.70;;;;;;5067693;28;20047;-62
2022/12/10 09:07:24;;;;;;;9.80;7.13;;;5.10;89.90;;;;;;5059408;28;20028;-64
2022/12/10 09:09:50;;;;;;;12.18;7.57;;;5.10;90.10;;;;;;5069628;28;20115;-61
2022/12/10 09:12:15;;;;;;;11.18;7.07;;;5.10;90.40;;;;;;5070601;28;20025;-65
2022/12/10 09:14:41;;;;;;;13.23;8.00;;;5.10;90.50;;;;;;5065528;28;20127;-64
2022/12/10 09:17:08;;;;;;;13.68;8.27;;;5.10;90.60;;;;;;5060275;28;20381;-60
2022/12/10 09:19:34;;;;;;;13.02;8.32;;;5.20;90.70;;;;;;5062596;28;20035;-62
2022/12/10 09:22:00;;;;;;;10.85;7.95;;;5.20;90.70;;;;;;5069177;28;20125;-61
2022/12/10 09:24:25;;;;;;;11.27;7.82;;;5.20;90.90;;;;;;5064884;28;20033;-60
2022/12/10 09:26:51;;;;;;;12.02;7.93;;;5.30;90.90;;;;;;5059929;28;20045;-60
2022/12/10 09:29:17;;;;;;;12.80;7.80;;;5.30;91.20;;;;;;5059947;28;20749;-61
2022/12/10 09:31:43;;;;;;;15.30;8.25;;;5.40;91.30;;;;;;5060271;28;20032;-61
2022/12/10 09:34:08;;;;;;;16.13;9.05;;;5.40;91.30;;;;;;5071349;28;20035;-62
2022/12/10 09:36:34;;;;;;;14.52;8.95;;;5.50;91.20;;;;;;5064521;28;20374;-61
2022/12/10 09:39:00;;;;;;;15.07;9.35;;;5.50;91.10;;;;;;5065895;28;20036;-64
2022/12/10 09:41:55;;;;;;;15.63;8.45;;;5.50;91.10;;;;;;5065639;28;20032;-62
2022/12/10 09:44:41;;;;;;;12.30;8.30;;;5.50;91.10;;;;;;5057692;28;20411;-64
2022/12/10 09:47:10;;;;;;;13.27;8.25;;;5.50;91.00;;;;;;5061851;28;20039;-64
2022/12/10 09:50:06;;;;;;;13.00;8.40;;;5.50;91.20;;;;;;5060108;28;20173;-61
2022/12/10 09:52:39;;;;;;;13.18;8.15;;;5.40;91.20;;;;;;5057030;28;20462;-66
2022/12/10 09:55:21;;;;;;;11.48;7.80;;;5.40;91.40;;;;;;5057835;28;20036;-60
2022/12/10 09:57:50;;;;;;;11.02;7.18;;;5.50;91.60;;;;;;5051527;28;20215;-63
2022/12/10 10:00:35;;;;;;;12.20;7.78;;;5.50;91.70;;;;;;5064443;28;21955;-63
2022/12/10 10:03:02;;;;;;;16.00;8.27;;;5.50;91.70;;;;;;5062725;28;20562;-62
2022/12/10 10:05:35;;;;;;;17.25;8.13;;;5.50;91.60;;;;;;5060905;28;20035;-62
2022/12/10 10:08:11;;;;;;;12.63;8.30;;;5.50;91.50;;;;;;5065263;28;20028;-64
2022/12/10 10:10:40;;;;;;;14.90;8.70;;;5.50;91.50;;;;;;5057108;28;20036;-60
2022/12/10 10:13:08;;;;;;;13.73;8.60;;;5.50;91.50;;;;;;5060523;28;20608;-60
2022/12/10 10:15:42;;;;;;;9.90;7.10;;;5.40;91.70;;;;;;5058146;28;20043;-63
2022/12/10 10:18:14;;;;;;;10.95;7.38;;;5.40;91.80;;;;;;5055962;28;20092;-58
2022/12/10 10:20:40;;;;;;;11.20;7.75;;;5.50;91.90;;;;;;5059595;28;20112;-59
2022/12/10 10:23:06;;;;;;;12.50;7.68;;;5.50;92.30;;;;;;5064600;28;20040;-63
2022/12/10 10:25:32;;;;;;;10.55;7.53;;;5.50;92.40;;;;;;5062340;28;20037;-65
2022/12/10 10:27:58;;;;;;;12.82;7.82;;;5.60;92.40;;;;;;5063473;28;20036;-60
2022/12/10 10:30:24;;;;;;;9.55;6.13;;;5.70;92.30;;;;;;5056888;28;20028;-64
2022/12/10 10:33:02;;;;;;;9.82;7.05;;;5.70;92.10;;;;;;5049576;28;20110;-59
2022/12/10 10:35:40;;;;;;;11.07;6.90;;;5.80;92.00;;;;;;5064189;28;20148;-60
2022/12/10 10:38:15;;;;;;;13.48;7.65;;;5.80;91.60;;;;;;5053474;28;20041;-63
2022/12/10 10:40:45;;;;;;;11.43;7.35;;;5.80;91.40;;;;;;5059082;28;20039;-59
2022/12/10 10:43:33;;;;;;;11.55;7.20;;;5.80;90.90;;;;;;5061916;28;20040;-58
2022/12/10 10:46:07;;;;;;;11.98;8.38;;;5.70;90.70;;;;;;5069609;28;20488;-57
2022/12/10 10:48:33;;;;;;;13.45;7.65;;;5.70;90.60;;;;;;5079641;28;20043;-58
2022/12/10 10:51:11;;;;;;;9.98;6.78;;;5.60;90.70;;;;;;5073655;28;20486;-58
2022/12/10 10:53:46;;;;;;;11.48;7.72;;;5.50;91.00;;;;;;5072572;28;20149;-58
2022/12/10 10:56:20;;;;;;;11.05;7.20;;;5.50;91.30;;;;;;5067833;28;20061;-58
2022/12/10 10:58:57;;;;;;;12.60;7.28;;;5.50;91.40;;;;;;5067354;28;20032;-56
2022/12/10 11:01:25;;;;;;;9.85;6.68;;;5.50;91.40;;;;;;5066709;28;20032;-59
2022/12/10 11:03:58;;;;;;;14.35;7.78;;;5.50;91.50;;;;;;5068287;28;20260;-58
2022/12/10 11:06:25;;;;;;;10.65;7.03;;;5.40;91.50;;;;;;5064712;28;20398;-58
2022/12/10 11:08:57;;;;;;;7.55;5.72;;;5.40;91.70;;;;;;5075120;28;20039;-58
2022/12/10 11:11:31;;;;;;;8.38;6.25;;;5.40;91.80;;;;;;5070387;28;20477;-58
2022/12/10 11:14:15;;;;;;;9.68;6.32;;;5.40;92.00;;;;;;5076422;28;20051;-59
2022/12/10 11:16:41;;;;;;;13.77;7.80;;;5.40;92.10;;;;;;5079291;28;20028;-58
2022/12/10 11:19:21;;;;;;;11.70;7.18;;;5.40;92.30;;;;;;5075863;28;20032;-59
2022/12/10 11:21:47;;;;;;;10.73;7.03;;;5.40;92.20;;;;;;5071647;28;20032;-58
2022/12/10 11:24:17;;;;;;;10.55;7.05;;;5.40;92.20;;;;;;5077695;28;20036;-58
2022/12/10 11:26:57;;;;;;;12.02;6.85;;;5.40;92.30;;;;;;5075433;28;20032;-59
2022/12/10 11:29:23;;;;;;;11.75;8.20;;;5.40;92.60;;;;;;5075240;28;20040;-59
2022/12/10 11:32:26;;;;;;;12.95;8.55;;;5.40;92.80;;;;;;5072234;28;20040;-59
2022/12/10 11:35:13;;;;;;;11.18;7.60;;;5.40;92.80;;;;;;5074918;28;20051;-58
2022/12/10 11:37:57;;;;;;;11.43;7.35;;;5.40;93.00;;;;;;5075798;28;20060;-59
2022/12/10 11:40:28;;;;;;;11.30;7.32;;;5.40;93.00;;;;;;5072783;28;20043;-58
2022/12/10 11:43:16;;;;;;;10.15;7.05;;;5.40;93.30;;;;;;5078322;28;20035;-59
2022/12/10 11:46:12;;;;;;;11.65;6.60;;;5.50;93.40;;;;;;5068380;28;20036;-57
2022/12/10 11:48:57;;;;;;;11.32;6.80;;;5.50;93.30;;;;;;5071769;28;20058;-60
2022/12/10 11:51:23;;;;;;;9.73;6.78;;;5.50;93.50;;;;;;5072723;28;21142;-58
2022/12/10 11:54:10;;;;;;;11.70;6.75;;;5.50;93.60;;;;;;5073196;28;20122;-59
2022/12/10 11:56:49;;;;;;;7.82;5.97;;;5.60;93.40;;;;;;5074064;28;20184;-56
2022/12/10 11:59:36;;;;;;;8.52;6.07;;;5.60;93.70;;;;;;5070678;28;21471;-57
2022/12/10 12:02:20;;;;;;;9.77;6.75;;;5.60;93.60;;;;;;5071816;28;20111;-57
2022/12/10 12:05:08;;;;;;;10.07;6.45;;;5.60;93.60;;;;;;5078682;28;20143;-57
2022/12/10 12:07:57;;;;;;;12.18;7.70;;;5.60;93.50;;;;;;5075719;28;20066;-58
2022/12/10 12:10:30;;;;;;;10.88;6.65;;;5.60;93.50;;;;;;5075987;28;20466;-59
2022/12/10 12:13:03;;;;;;;12.63;7.00;;;5.60;93.60;;;;;;5078997;28;20598;-56
2022/12/10 12:15:38;;;;;;;11.93;7.65;;;5.50;93.80;;;;;;5075593;28;20024;-57
2022/12/10 12:18:32;;;;;;;10.52;6.88;;;5.50;94.00;;;;;;5076747;28;20111;-56
2022/12/10 12:21:03;;;;;;;11.60;6.72;;;5.50;94.20;;;;;;5080884;28;20055;-54
2022/12/10 12:23:41;;;;;;;10.93;6.97;;;5.60;94.70;;;;;;5074768;28;20105;-56
2022/12/10 12:26:14;;;;;;;10.13;7.07;;;5.60;94.90;;;;;;5074368;28;20032;-56
2022/12/10 12:29:00;;;;;;;11.65;7.30;;;5.60;94.90;;;;;;5080160;28;20036;-56
2022/12/10 12:31:33;;;;;;;11.80;7.57;;;5.70;94.80;;;;;;5047495;28;20037;-55
2022/12/10 12:34:04;;;;;;;10.25;7.40;;;5.70;95.00;;;;;;5075764;28;20412;-56
2022/12/10 12:36:34;;;;;;;;;;;5.80;95.00;;;;;;5076968;28;20039;-56
2022/12/10 12:39:32;;;;;;;11.40;7.75;;;5.80;94.60;;;;;;5077228;28;20335;-55
2022/12/10 12:42:03;;;;;;;13.15;7.75;;;5.80;94.50;;;;;;5074188;28;20036;-56
2022/12/10 12:44:46;;;;;;;14.77;9.38;;;5.80;95.20;;;;;;5070050;28;20035;-56
2022/12/10 12:47:40;;;;;;;15.85;10.20;;;5.80;95.10;;;;;;5074511;28;20338;-56
2022/12/10 12:50:28;;;;;;;15.85;10.07;;;5.90;95.40;;;;;;5078926;28;20093;-55
2022/12/10 12:52:59;;;;;;;13.57;9.60;;;6.00;96.00;;;;;;5074689;28;20492;-57
2022/12/10 12:55:46;;;;;;;16.63;10.73;;;6.10;96.50;;;;;;5074860;28;20818;-57
2022/12/10 12:58:27;;;;;;;14.98;9.55;;;6.20;96.70;;;;;;5076207;28;20032;-56
2022/12/10 13:00:58;;;;;;;14.02;8.55;;;6.30;97.10;;;;;;5075914;28;20498;-57
2022/12/10 13:03:39;;;;;;;17.20;10.27;;;6.40;97.20;;;;;;5079995;28;20135;-57
2022/12/10 13:06:25;;;;;;;16.05;10.55;;;6.60;97.20;;;;;;5078011;28;20119;-56
2022/12/10 13:09:12;;;;;;;24.85;12.70;;;6.70;97.20;;;;;;5079011;28;20028;-56
2022/12/10 13:12:06;;;;;;;23.23;12.93;;;6.80;97.30;;;;;;5078396;28;20475;-57
2022/12/10 13:14:51;;;;;;;20.83;11.25;;;6.90;97.80;;;;;;5079302;28;20043;-57
2022/12/10 13:17:27;;;;;;;22.25;12.00;;;7.10;98.20;;;;;;5082380;28;20020;-57
2022/12/10 13:20:14;;;;;;;13.73;9.52;;;7.20;98.10;;;;;;5079609;28;20032;-57
2022/12/10 13:22:42;;;;;;;19.38;10.40;;;7.30;98.20;;;;;;5080062;28;20039;-57
2022/12/10 13:25:11;;;;;;;14.10;9.20;;;7.40;98.20;;;;;;5073190;28;20055;-57